Time;durP1;ratioP1;P1;durP2;ratioP2;P2;SDS_P1;SDS_P2;PMS_P1;PMS_P2;Temp;Humidity;BMP_temperature;BMP_pressure;BME280_temperature;BME280_humidity;BME280_pressure;Samples;Min_cycle;Max_cycle;Signal;HPM_P1;HPM_P2
2021/01/03 00:01:07;;;;;;;10.40;8.57;;;6.30;59.90;;;;;;4900327;29;20479;-77
2021/01/03 00:03:33;;;;;;;11.27;8.30;;;6.30;59.90;;;;;;4900447;29;20458;-76
2021/01/03 00:06:00;;;;;;;8.10;7.23;;;6.30;59.90;;;;;;4900661;29;20468;-77
2021/01/03 00:08:26;;;;;;;8.97;7.00;;;6.30;59.80;;;;;;4900552;29;20455;-76
2021/01/03 00:10:53;;;;;;;8.10;7.30;;;6.30;59.70;;;;;;4900451;29;20462;-77
2021/01/03 00:13:20;;;;;;;8.20;7.40;;;6.30;59.70;;;;;;4900277;29;20451;-77
2021/01/03 00:15:47;;;;;;;9.03;7.50;;;6.30;59.70;;;;;;4900049;29;20462;-78
2021/01/03 00:18:13;;;;;;;8.80;8.00;;;6.30;59.60;;;;;;4900357;29;20463;-76
2021/01/03 00:20:40;;;;;;;9.73;8.50;;;6.30;59.70;;;;;;4900428;29;20895;-76
2021/01/03 00:23:06;;;;;;;9.57;6.90;;;6.30;59.60;;;;;;4899892;29;20976;-76
2021/01/03 00:25:33;;;;;;;8.90;6.13;;;6.30;59.60;;;;;;4898439;29;20467;-77
2021/01/03 00:28:00;;;;;;;8.47;6.47;;;6.30;59.60;;;;;;4900169;29;20492;-76
2021/01/03 00:30:29;;;;;;;10.70;7.03;;;6.30;59.40;;;;;;4900209;29;20468;-77
2021/01/03 00:32:57;;;;;;;9.73;7.00;;;6.30;59.40;;;;;;4899947;29;20480;-77
2021/01/03 00:35:28;;;;;;;8.30;6.30;;;6.30;59.40;;;;;;4900178;29;20470;-76
2021/01/03 00:37:58;;;;;;;7.57;6.57;;;6.30;59.30;;;;;;4900184;29;20542;-76
2021/01/03 00:40:26;;;;;;;7.67;6.97;;;6.30;59.30;;;;;;4900014;29;21040;-76
2021/01/03 00:42:52;;;;;;;7.60;6.77;;;6.30;59.50;;;;;;4899538;29;20459;-76
2021/01/03 00:45:19;;;;;;;9.40;6.90;;;6.30;59.50;;;;;;4899637;29;20475;-76
2021/01/03 00:47:46;;;;;;;8.53;7.30;;;6.30;59.50;;;;;;4899566;29;20453;-76
2021/01/03 00:50:14;;;;;;;8.63;7.80;;;6.30;59.40;;;;;;4900024;29;20459;-76
2021/01/03 00:52:41;;;;;;;7.73;6.67;;;6.30;59.40;;;;;;4896549;29;20468;-76
2021/01/03 00:55:09;;;;;;;7.67;6.97;;;6.30;59.30;;;;;;4899976;29;20463;-75
2021/01/03 00:57:37;;;;;;;8.27;7.30;;;6.30;59.20;;;;;;4899407;29;20467;-75
2021/01/03 01:00:10;;;;;;;9.33;7.00;;;6.30;59.20;;;;;;4899195;29;20555;-76
2021/01/03 01:02:36;;;;;;;8.43;7.20;;;6.30;59.20;;;;;;4899523;29;20450;-76
2021/01/03 01:05:06;;;;;;;9.10;7.03;;;6.30;59.20;;;;;;4899348;29;20989;-76
2021/01/03 01:07:32;;;;;;;7.70;5.60;;;6.30;59.20;;;;;;4899517;29;20503;-76
2021/01/03 01:09:59;;;;;;;6.83;6.13;;;6.30;59.20;;;;;;4899932;29;20471;-75
2021/01/03 01:12:26;;;;;;;7.90;6.53;;;6.30;59.20;;;;;;4898784;29;20490;-75
2021/01/03 01:14:52;;;;;;;8.90;7.00;;;6.20;59.20;;;;;;4899542;29;20452;-75
2021/01/03 01:17:19;;;;;;;9.20;7.27;;;6.20;59.30;;;;;;4899103;29;20527;-75
2021/01/03 01:19:45;;;;;;;8.03;7.17;;;6.30;59.40;;;;;;4897907;29;20506;-75
2021/01/03 01:22:13;;;;;;;8.80;7.00;;;6.30;59.40;;;;;;4898968;29;20467;-75
2021/01/03 01:24:39;;;;;;;8.50;7.13;;;6.30;59.30;;;;;;4899289;29;20452;-75
2021/01/03 01:27:06;;;;;;;8.57;7.13;;;6.30;59.20;;;;;;4898760;29;20509;-76
2021/01/03 01:29:32;;;;;;;8.77;6.77;;;6.30;59.20;;;;;;4899114;29;20467;-76
2021/01/03 01:31:59;;;;;;;7.93;6.47;;;6.30;59.20;;;;;;4899142;29;20500;-76
2021/01/03 01:34:25;;;;;;;8.20;6.83;;;6.30;59.20;;;;;;4898348;29;20459;-75
2021/01/03 01:36:52;;;;;;;9.37;8.37;;;6.30;59.00;;;;;;4899370;29;20464;-75
2021/01/03 01:39:19;;;;;;;8.33;7.53;;;6.20;59.00;;;;;;4898929;29;20493;-76
2021/01/03 01:41:45;;;;;;;7.80;6.97;;;6.20;59.10;;;;;;4899219;29;20847;-75
2021/01/03 01:44:12;;;;;;;7.53;6.77;;;6.20;59.10;;;;;;4898453;29;20463;-76
2021/01/03 01:46:49;;;;;;;9.13;7.83;;;6.20;59.10;;;;;;4897345;29;20487;-75
2021/01/03 01:49:16;;;;;;;7.93;7.20;;;6.20;59.30;;;;;;4898726;29;20968;-75
2021/01/03 01:51:47;;;;;;;8.10;7.20;;;6.20;59.30;;;;;;4899405;29;20836;-75
2021/01/03 01:54:16;;;;;;;8.20;7.40;;;6.20;59.10;;;;;;4897480;29;20804;-75
2021/01/03 01:56:51;;;;;;;9.10;8.13;;;6.20;59.20;;;;;;4899046;29;20466;-75
2021/01/03 01:59:30;;;;;;;8.80;7.23;;;6.30;59.30;;;;;;4898073;29;20526;-76
2021/01/03 02:02:04;;;;;;;8.53;7.70;;;6.30;59.30;;;;;;4898595;29;20470;-76
2021/01/03 02:04:34;;;;;;;10.43;8.50;;;6.30;59.30;;;;;;4898166;29;20458;-76
2021/01/03 02:07:07;;;;;;;7.03;6.43;;;6.30;59.40;;;;;;4898263;29;20460;-76
2021/01/03 02:09:48;;;;;;;8.67;7.77;;;6.30;59.40;;;;;;4898565;29;20468;-76
2021/01/03 02:12:23;;;;;;;8.57;7.77;;;6.30;59.60;;;;;;4895550;29;20497;-76
2021/01/03 02:14:50;;;;;;;8.70;7.90;;;6.30;59.70;;;;;;4898005;29;20467;-76
2021/01/03 02:17:16;;;;;;;8.57;7.77;;;6.30;60.00;;;;;;4897869;29;20512;-76
2021/01/03 02:19:43;;;;;;;10.53;8.07;;;6.30;60.20;;;;;;4898196;29;20538;-77
2021/01/03 02:22:21;;;;;;;9.30;7.97;;;6.20;60.40;;;;;;4898326;29;20824;-77
2021/01/03 02:24:56;;;;;;;8.70;7.80;;;6.20;61.00;;;;;;4898282;29;20465;-77
2021/01/03 02:27:30;;;;;;;13.57;9.30;;;6.20;61.50;;;;;;4893783;29;20460;-77
2021/01/03 02:29:58;;;;;;;11.03;9.93;;;6.10;61.80;;;;;;4879423;29;20499;-77
2021/01/03 02:32:26;;;;;;;9.83;8.40;;;6.10;62.20;;;;;;4893187;29;20460;-77
2021/01/03 02:34:53;;;;;;;11.27;8.57;;;6.10;62.60;;;;;;4897355;29;20457;-77
2021/01/03 02:37:24;;;;;;;9.70;8.47;;;6.00;62.70;;;;;;4897532;29;20562;-77
2021/01/03 02:39:55;;;;;;;10.27;9.27;;;6.00;63.10;;;;;;4896792;29;20497;-77
2021/01/03 02:42:25;;;;;;;10.70;9.60;;;6.00;63.30;;;;;;4897724;29;20539;-77
2021/01/03 02:44:52;;;;;;;10.87;8.20;;;6.00;63.70;;;;;;4897963;29;20486;-77
2021/01/03 02:47:21;;;;;;;12.27;9.63;;;5.90;63.90;;;;;;4897447;29;20478;-77
2021/01/03 02:49:48;;;;;;;10.60;9.63;;;5.90;64.20;;;;;;4897895;29;20463;-77
2021/01/03 02:52:21;;;;;;;10.47;9.37;;;5.90;64.60;;;;;;4897453;29;20458;-77
2021/01/03 02:54:48;;;;;;;11.67;10.43;;;5.90;65.00;;;;;;4897131;29;20464;-76
2021/01/03 02:57:15;;;;;;;12.00;8.90;;;5.90;65.40;;;;;;4896687;29;20465;-75
2021/01/03 02:59:42;;;;;;;14.27;10.37;;;5.90;65.60;;;;;;4897603;29;20499;-77
2021/01/03 03:02:08;;;;;;;11.53;9.77;;;5.90;65.90;;;;;;4897604;29;20467;-75
2021/01/03 03:04:35;;;;;;;12.40;9.87;;;5.90;66.10;;;;;;4897933;29;20560;-75
2021/01/03 03:07:01;;;;;;;13.30;10.17;;;5.80;66.00;;;;;;4895614;29;20459;-76
2021/01/03 03:09:28;;;;;;;11.97;10.40;;;5.80;66.20;;;;;;4897655;29;20585;-76
2021/01/03 03:11:55;;;;;;;14.60;10.87;;;5.80;66.70;;;;;;4897350;29;21010;-75
2021/01/03 03:14:22;;;;;;;10.57;9.53;;;5.70;66.80;;;;;;4897352;29;20498;-78
2021/01/03 03:16:54;;;;;;;12.17;10.70;;;5.70;67.30;;;;;;4896854;29;20467;-76
2021/01/03 03:19:20;;;;;;;14.47;10.80;;;5.70;67.50;;;;;;4897671;29;21054;-76
2021/01/03 03:21:47;;;;;;;12.93;10.20;;;5.60;67.80;;;;;;4897097;29;20483;-75
2021/01/03 03:24:13;;;;;;;12.50;11.20;;;5.60;68.00;;;;;;4897051;29;20950;-75
2021/01/03 03:26:40;;;;;;;13.87;11.70;;;5.60;68.20;;;;;;4897162;29;20459;-76
2021/01/03 03:29:06;;;;;;;12.57;10.77;;;5.60;68.20;;;;;;4897021;29;20478;-75
2021/01/03 03:31:34;;;;;;;12.00;10.40;;;5.60;68.20;;;;;;4897212;29;20447;-75
2021/01/03 03:34:01;;;;;;;13.20;10.80;;;5.70;68.50;;;;;;4895358;29;20945;-76
2021/01/03 03:36:27;;;;;;;12.03;10.03;;;5.70;68.70;;;;;;4896796;29;20452;-76
2021/01/03 03:38:54;;;;;;;17.80;12.13;;;5.70;68.60;;;;;;4897532;29;20449;-76
2021/01/03 03:41:21;;;;;;;15.90;11.80;;;5.70;68.40;;;;;;4897139;29;20501;-75
2021/01/03 03:43:48;;;;;;;12.87;10.90;;;5.70;68.30;;;;;;4897154;29;20978;-76
2021/01/03 03:46:14;;;;;;;12.80;11.30;;;5.70;68.30;;;;;;4896859;29;21007;-76
2021/01/03 03:48:42;;;;;;;13.27;10.30;;;5.70;68.40;;;;;;4880425;29;20491;-76
2021/01/03 03:51:09;;;;;;;13.43;10.73;;;5.70;68.40;;;;;;4897252;29;20471;-76
2021/01/03 03:53:35;;;;;;;12.27;10.43;;;5.60;68.30;;;;;;4897265;29;20505;-76
2021/01/03 03:56:02;;;;;;;14.90;11.70;;;5.60;68.50;;;;;;4896952;29;20459;-76
2021/01/03 03:58:28;;;;;;;12.53;10.70;;;5.60;68.80;;;;;;4897287;29;20882;-77
2021/01/03 04:00:55;;;;;;;13.53;11.57;;;5.60;69.00;;;;;;4894710;29;20494;-76
2021/01/03 04:03:21;;;;;;;13.40;11.37;;;5.60;68.90;;;;;;4878661;29;20493;-76
2021/01/03 04:05:49;;;;;;;12.00;10.80;;;5.60;68.80;;;;;;4893221;29;20458;-76
2021/01/03 04:08:16;;;;;;;13.73;11.60;;;5.70;69.00;;;;;;4896806;29;20460;-76
2021/01/03 04:10:42;;;;;;;14.90;11.47;;;5.70;68.90;;;;;;4896780;29;20459;-76
2021/01/03 04:13:09;;;;;;;13.27;10.53;;;5.70;68.80;;;;;;4897171;29;20885;-76
2021/01/03 04:15:36;;;;;;;11.90;10.70;;;5.70;68.80;;;;;;4896229;29;20518;-76
2021/01/03 04:18:03;;;;;;;11.63;10.40;;;5.70;69.30;;;;;;4897249;29;20467;-76
2021/01/03 04:20:30;;;;;;;13.23;11.70;;;5.60;68.80;;;;;;4896499;29;20653;-77
2021/01/03 04:22:57;;;;;;;11.30;9.93;;;5.60;69.00;;;;;;4897055;29;20463;-77
2021/01/03 04:25:24;;;;;;;12.43;10.17;;;5.70;69.70;;;;;;4896130;29;20461;-76
2021/01/03 04:27:53;;;;;;;14.10;10.60;;;5.70;68.90;;;;;;4895531;29;20459;-77
2021/01/03 04:30:21;;;;;;;13.30;10.53;;;5.70;68.60;;;;;;4896334;29;20523;-76
2021/01/03 04:32:48;;;;;;;14.80;10.37;;;5.70;68.60;;;;;;4896809;29;20489;-77
2021/01/03 04:35:17;;;;;;;13.17;11.70;;;5.70;68.70;;;;;;4884804;29;20462;-76
2021/01/03 04:37:44;;;;;;;15.77;11.60;;;5.70;69.00;;;;;;4900142;29;20980;-76
2021/01/03 04:40:17;;;;;;;13.60;10.23;;;5.70;69.30;;;;;;4899788;29;20514;-76
2021/01/03 04:42:45;;;;;;;13.63;12.23;;;5.70;69.20;;;;;;4900465;29;20514;-75
2021/01/03 04:45:18;;;;;;;11.57;10.00;;;5.70;69.20;;;;;;4899422;29;20482;-76
2021/01/03 04:47:53;;;;;;;11.70;10.50;;;5.70;69.10;;;;;;4899988;29;20557;-76
2021/01/03 04:50:39;;;;;;;13.57;11.10;;;5.70;69.20;;;;;;4899302;29;20462;-76
2021/01/03 04:53:18;;;;;;;13.73;11.30;;;5.80;69.30;;;;;;4898695;29;20525;-76
2021/01/03 04:55:51;;;;;;;12.50;11.20;;;5.70;69.10;;;;;;4899648;29;20490;-76
2021/01/03 04:58:29;;;;;;;12.43;11.20;;;5.70;68.90;;;;;;4899754;29;20460;-76
2021/01/03 05:01:12;;;;;;;12.37;10.27;;;5.70;69.00;;;;;;4899328;29;20496;-76
2021/01/03 05:03:56;;;;;;;11.80;9.97;;;5.70;69.00;;;;;;4900082;29;21033;-76
2021/01/03 05:06:25;;;;;;;11.77;9.93;;;5.70;68.90;;;;;;4898226;29;20459;-76
2021/01/03 05:08:57;;;;;;;12.90;11.50;;;5.70;69.00;;;;;;4899822;29;20467;-76
2021/01/03 05:11:30;;;;;;;14.03;11.67;;;5.70;69.30;;;;;;4899409;29;20522;-76
2021/01/03 05:14:07;;;;;;;12.67;10.83;;;5.70;69.30;;;;;;4899862;29;20464;-76
2021/01/03 05:16:34;;;;;;;10.10;9.07;;;5.70;69.20;;;;;;4899090;29;20459;-76
2021/01/03 05:19:00;;;;;;;16.60;11.10;;;5.70;69.20;;;;;;4898433;29;20466;-76
2021/01/03 05:21:46;;;;;;;14.90;11.00;;;5.70;69.00;;;;;;4898876;29;20452;-75
2021/01/03 05:24:13;;;;;;;12.10;10.80;;;5.70;69.00;;;;;;4899410;29;20461;-76
2021/01/03 05:26:40;;;;;;;11.67;10.47;;;5.70;69.30;;;;;;4899632;29;20468;-75
2021/01/03 05:29:09;;;;;;;12.30;9.20;;;5.70;69.20;;;;;;4899113;29;21032;-75
2021/01/03 05:31:35;;;;;;;10.33;9.07;;;5.60;69.20;;;;;;4899201;29;20452;-75
2021/01/03 05:34:04;;;;;;;13.33;10.80;;;5.70;69.50;;;;;;4899253;29;20498;-75
2021/01/03 05:36:35;;;;;;;10.87;9.63;;;5.70;69.60;;;;;;4898827;29;20452;-75
2021/01/03 05:39:10;;;;;;;13.07;10.83;;;5.60;69.50;;;;;;4898949;29;20514;-75
2021/01/03 05:41:55;;;;;;;12.57;11.27;;;5.70;69.60;;;;;;4899272;29;20852;-76
2021/01/03 05:44:24;;;;;;;12.63;11.17;;;5.70;69.50;;;;;;4898796;29;20502;-77
2021/01/03 05:46:54;;;;;;;13.10;10.87;;;5.70;69.70;;;;;;4896786;29;21059;-76
2021/01/03 05:49:25;;;;;;;14.27;11.13;;;5.70;69.50;;;;;;4898341;29;20466;-76
2021/01/03 05:51:58;;;;;;;11.73;10.63;;;5.70;69.50;;;;;;4897778;29;20482;-76
2021/01/03 05:54:32;;;;;;;14.50;12.03;;;5.70;69.30;;;;;;4898766;29;20469;-76
2021/01/03 05:57:06;;;;;;;14.03;12.30;;;5.70;69.50;;;;;;4898990;29;20466;-76
2021/01/03 05:59:38;;;;;;;10.20;9.20;;;5.70;69.40;;;;;;4897977;29;20498;-76
2021/01/03 06:02:11;;;;;;;12.63;11.03;;;5.70;69.30;;;;;;4898350;29;20971;-76
2021/01/03 06:04:38;;;;;;;13.23;11.80;;;5.70;69.30;;;;;;4898861;29;20463;-77
2021/01/03 06:07:25;;;;;;;12.70;10.07;;;5.70;69.20;;;;;;4898577;29;20467;-76
2021/01/03 06:09:51;;;;;;;13.53;11.07;;;5.70;69.10;;;;;;4897036;29;20951;-76
2021/01/03 06:12:21;;;;;;;14.80;11.40;;;5.70;69.10;;;;;;4897615;29;20470;-76
2021/01/03 06:14:50;;;;;;;11.50;9.50;;;5.70;68.90;;;;;;4897889;29;20474;-75
2021/01/03 06:17:33;;;;;;;12.53;11.27;;;5.70;68.80;;;;;;4898133;29;20455;-75
2021/01/03 06:20:13;;;;;;;11.70;10.50;;;5.70;68.90;;;;;;4898142;29;20491;-75
2021/01/03 06:22:47;;;;;;;15.20;11.30;;;5.70;69.10;;;;;;4897904;29;20458;-75
2021/01/03 06:25:30;;;;;;;11.83;10.63;;;5.70;69.00;;;;;;4898071;29;20466;-75
2021/01/03 06:28:06;;;;;;;12.40;11.13;;;5.70;68.90;;;;;;4898067;29;20945;-75
2021/01/03 06:30:34;;;;;;;11.50;10.30;;;5.70;69.00;;;;;;4898243;29;20461;-74
2021/01/03 06:33:41;;;;;;;12.70;11.03;;;5.70;69.00;;;;;;4898039;29;20463;-75
2021/01/03 06:36:15;;;;;;;11.57;10.20;;;5.70;68.80;;;;;;4873946;29;20459;-75
2021/01/03 06:39:08;;;;;;;12.97;10.97;;;5.60;68.80;;;;;;4897533;29;20465;-74
2021/01/03 06:41:50;;;;;;;13.17;11.57;;;5.60;69.10;;;;;;4897871;29;20491;-76
2021/01/03 06:44:58;;;;;;;11.80;10.57;;;5.60;68.90;;;;;;4897914;29;20469;-75
2021/01/03 06:48:22;;;;;;;12.60;9.73;;;5.60;68.90;;;;;;4897332;29;20896;-75
2021/01/03 06:51:23;;;;;;;14.30;11.40;;;5.60;68.90;;;;;;4861648;29;20466;-76
2021/01/03 06:54:16;;;;;;;15.50;11.67;;;5.60;69.00;;;;;;4867111;29;20545;-77
2021/01/03 06:57:12;;;;;;;11.20;10.07;;;5.60;69.30;;;;;;4897895;29;20522;-77
2021/01/03 07:00:10;;;;;;;13.03;11.73;;;5.60;69.10;;;;;;4896616;29;20506;-78
2021/01/03 07:02:43;;;;;;;14.00;12.20;;;5.70;69.20;;;;;;4897643;29;20460;-75
2021/01/03 07:05:11;;;;;;;11.63;10.40;;;5.70;68.80;;;;;;4897441;29;20818;-75
2021/01/03 07:07:40;;;;;;;13.20;11.43;;;5.60;68.50;;;;;;4896622;29;20475;-76
2021/01/03 07:10:10;;;;;;;15.00;11.63;;;5.60;68.60;;;;;;4894686;29;20459;-76
2021/01/03 07:12:45;;;;;;;14.50;11.77;;;5.60;68.50;;;;;;4896876;29;20516;-74
2021/01/03 07:15:35;;;;;;;15.07;11.77;;;5.60;68.50;;;;;;4894965;29;20470;-76
2021/01/03 07:18:23;;;;;;;14.80;13.07;;;5.70;68.70;;;;;;4896225;29;20981;-76
2021/01/03 07:20:55;;;;;;;12.57;11.20;;;5.70;68.70;;;;;;4897496;29;20530;-76
2021/01/03 07:23:32;;;;;;;13.93;11.37;;;5.70;68.70;;;;;;4896843;29;20453;-76
2021/01/03 07:26:07;;;;;;;13.77;11.20;;;5.70;68.60;;;;;;4893037;29;20879;-76
2021/01/03 07:28:35;;;;;;;15.57;11.60;;;5.70;68.80;;;;;;4886649;29;20459;-77
2021/01/03 07:31:10;;;;;;;13.37;11.33;;;5.70;68.70;;;;;;4896746;29;20474;-76
2021/01/03 07:34:03;;;;;;;14.17;11.37;;;5.70;68.50;;;;;;4893232;29;20469;-76
2021/01/03 07:36:46;;;;;;;13.17;11.77;;;5.70;68.80;;;;;;4897084;29;20452;-76
2021/01/03 07:39:25;;;;;;;13.00;11.60;;;5.70;68.90;;;;;;4896247;29;20459;-76
2021/01/03 07:42:20;;;;;;;14.57;12.23;;;5.60;68.70;;;;;;4895996;29;20514;-76
2021/01/03 07:44:47;;;;;;;12.23;9.67;;;5.70;68.80;;;;;;4895691;29;20521;-76
2021/01/03 07:47:37;;;;;;;14.13;10.47;;;5.70;68.90;;;;;;4896485;29;20478;-76
2021/01/03 07:50:26;;;;;;;13.90;11.63;;;5.70;68.70;;;;;;4896401;29;20464;-76
2021/01/03 07:52:55;;;;;;;13.47;10.90;;;5.70;68.60;;;;;;4895956;29;20459;-75
2021/01/03 07:55:30;;;;;;;13.63;11.53;;;5.60;68.30;;;;;;4897335;29;20455;-76
2021/01/03 07:58:01;;;;;;;14.50;12.80;;;5.60;68.40;;;;;;4887969;29;20465;-75
2021/01/03 08:00:29;;;;;;;11.83;10.60;;;5.70;68.30;;;;;;4894525;29;20912;-76
2021/01/03 08:03:03;;;;;;;15.13;11.70;;;5.70;68.30;;;;;;4896686;29;21011;-76
2021/01/03 08:05:30;;;;;;;17.80;12.03;;;5.70;68.10;;;;;;4896672;29;20475;-76
2021/01/03 08:08:11;;;;;;;15.30;12.40;;;5.70;68.20;;;;;;4896430;29;20567;-76
2021/01/03 08:10:37;;;;;;;12.13;10.43;;;5.70;68.20;;;;;;4898095;29;20521;-76
2021/01/03 08:13:10;;;;;;;14.70;11.23;;;5.80;68.10;;;;;;4900679;29;20451;-77
2021/01/03 08:15:37;;;;;;;16.37;13.40;;;5.80;68.20;;;;;;4900609;29;21033;-77
2021/01/03 08:18:11;;;;;;;12.40;9.83;;;5.80;68.20;;;;;;4900825;29;20490;-76
2021/01/03 08:20:38;;;;;;;13.60;10.50;;;5.80;68.30;;;;;;4900661;29;20504;-76
2021/01/03 08:23:16;;;;;;;14.07;12.10;;;5.80;68.20;;;;;;4900898;29;20882;-76
2021/01/03 08:25:43;;;;;;;15.40;11.37;;;5.80;68.00;;;;;;4898946;29;20505;-76
2021/01/03 08:28:13;;;;;;;11.33;10.10;;;5.90;68.10;;;;;;4900463;29;20462;-76
2021/01/03 08:30:40;;;;;;;13.03;10.03;;;5.90;67.90;;;;;;4900319;29;20507;-76
2021/01/03 08:33:11;;;;;;;12.83;10.97;;;5.90;67.70;;;;;;4900270;29;20806;-76
2021/01/03 08:35:38;;;;;;;14.33;12.40;;;5.90;67.90;;;;;;4900521;29;20962;-76
2021/01/03 08:38:04;;;;;;;11.50;9.50;;;5.90;68.00;;;;;;4900451;29;20479;-77
2021/01/03 08:40:36;;;;;;;13.17;10.67;;;6.00;67.90;;;;;;4900252;29;20498;-77
2021/01/03 08:43:06;;;;;;;13.00;11.20;;;6.00;67.70;;;;;;4900171;29;20458;-77
2021/01/03 08:45:36;;;;;;;12.03;10.40;;;6.00;67.50;;;;;;4900070;29;20478;-77
2021/01/03 08:48:06;;;;;;;13.97;11.73;;;6.00;67.40;;;;;;4900644;29;20467;-76
2021/01/03 08:50:36;;;;;;;12.50;10.40;;;6.00;67.80;;;;;;4899988;29;20452;-77
2021/01/03 08:53:06;;;;;;;17.77;11.10;;;6.10;67.90;;;;;;4898477;29;20456;-77
2021/01/03 08:55:35;;;;;;;12.10;9.90;;;6.10;67.60;;;;;;4900039;29;20452;-77
2021/01/03 08:58:04;;;;;;;13.17;10.70;;;6.00;67.20;;;;;;4899947;29;20468;-76
2021/01/03 09:00:34;;;;;;;12.03;10.70;;;6.00;67.40;;;;;;4899636;29;20558;-77
2021/01/03 09:03:02;;;;;;;12.10;10.90;;;6.00;67.60;;;;;;4899824;29;20460;-77
2021/01/03 09:05:33;;;;;;;12.33;10.93;;;6.00;67.60;;;;;;4900005;29;20455;-77
2021/01/03 09:08:02;;;;;;;11.13;9.77;;;6.00;67.80;;;;;;4899848;29;20554;-77
2021/01/03 09:10:35;;;;;;;13.53;10.10;;;6.10;67.80;;;;;;4900022;29;20534;-77
2021/01/03 09:13:10;;;;;;;12.87;10.27;;;6.10;67.80;;;;;;4899910;29;20460;-77
2021/01/03 09:15:40;;;;;;;12.03;10.77;;;6.10;67.70;;;;;;4899449;29;20968;-76
2021/01/03 09:18:21;;;;;;;11.77;10.10;;;6.10;67.50;;;;;;4898141;29;20455;-77
2021/01/03 09:20:49;;;;;;;13.30;10.77;;;6.10;67.50;;;;;;4899638;29;20914;-76
2021/01/03 09:23:22;;;;;;;12.20;9.77;;;6.10;67.50;;;;;;4899387;29;20471;-77
2021/01/03 09:25:54;;;;;;;10.90;9.60;;;6.20;67.30;;;;;;4899698;29;20473;-76
2021/01/03 09:28:26;;;;;;;9.80;8.80;;;6.20;67.40;;;;;;4899641;29;20467;-76
2021/01/03 09:31:07;;;;;;;11.40;9.77;;;6.30;67.30;;;;;;4899451;29;20469;-76
2021/01/03 09:33:35;;;;;;;14.13;10.87;;;6.30;67.10;;;;;;4899392;29;20831;-77
2021/01/03 09:36:06;;;;;;;12.80;11.60;;;6.40;66.90;;;;;;4899209;29;20466;-77
2021/01/03 09:38:58;;;;;;;12.27;10.33;;;6.40;67.20;;;;;;4899513;29;20482;-76
2021/01/03 09:41:46;;;;;;;10.73;9.40;;;6.40;67.10;;;;;;4899320;29;20499;-76
2021/01/03 09:44:24;;;;;;;15.17;10.50;;;6.50;67.00;;;;;;4897560;29;20453;-76
2021/01/03 09:46:58;;;;;;;12.50;10.30;;;6.50;67.00;;;;;;4898885;29;20491;-76
2021/01/03 09:49:29;;;;;;;11.40;9.20;;;6.50;66.50;;;;;;4899168;29;20526;-76
2021/01/03 09:52:07;;;;;;;11.10;9.90;;;6.60;66.30;;;;;;4899055;29;20512;-76
2021/01/03 09:54:43;;;;;;;11.60;10.50;;;6.60;66.20;;;;;;4899078;29;20525;-76
2021/01/03 09:57:24;;;;;;;11.53;9.40;;;6.60;65.90;;;;;;4898949;29;20461;-77
2021/01/03 09:59:55;;;;;;;11.13;10.13;;;6.70;65.90;;;;;;4898926;29;20503;-77
2021/01/03 10:02:22;;;;;;;13.20;9.90;;;6.70;65.80;;;;;;4898805;29;20468;-76
2021/01/03 10:04:49;;;;;;;14.27;10.70;;;6.70;65.20;;;;;;4898981;29;20452;-76
2021/01/03 10:07:21;;;;;;;11.47;10.27;;;6.70;65.10;;;;;;4898824;29;21026;-76
2021/01/03 10:09:55;;;;;;;14.93;11.60;;;6.70;64.90;;;;;;4898784;29;20508;-75
2021/01/03 10:12:35;;;;;;;9.97;8.97;;;6.70;65.00;;;;;;4897130;29;20462;-77
2021/01/03 10:15:12;;;;;;;11.50;10.30;;;6.80;65.30;;;;;;4898659;29;20474;-76
2021/01/03 10:17:41;;;;;;;10.57;9.23;;;6.80;64.70;;;;;;4898667;29;20960;-76
2021/01/03 10:20:32;;;;;;;11.07;9.57;;;6.90;65.70;;;;;;4898539;29;20911;-76
2021/01/03 10:22:59;;;;;;;10.07;9.07;;;6.90;64.50;;;;;;4895900;29;20543;-76
2021/01/03 10:25:26;;;;;;;10.80;9.67;;;6.90;64.50;;;;;;4897792;29;20460;-77
2021/01/03 10:28:12;;;;;;;11.60;9.17;;;7.00;64.50;;;;;;4897791;29;20492;-77
2021/01/03 10:30:40;;;;;;;11.07;9.27;;;7.00;64.60;;;;;;4894693;29;20796;-77
2021/01/03 10:33:08;;;;;;;11.80;10.20;;;7.00;65.10;;;;;;4897484;29;20967;-76
2021/01/03 10:35:35;;;;;;;10.43;8.90;;;7.00;64.20;;;;;;4898391;29;20497;-75
2021/01/03 10:38:01;;;;;;;12.60;9.10;;;7.00;63.70;;;;;;4896446;29;20972;-77
2021/01/03 10:40:29;;;;;;;11.57;9.80;;;6.90;63.30;;;;;;4898169;29;20503;-78
2021/01/03 10:42:55;;;;;;;12.33;8.47;;;6.90;63.30;;;;;;4897393;29;20836;-76
2021/01/03 10:45:23;;;;;;;11.40;9.93;;;6.80;63.80;;;;;;4897535;29;20481;-77
2021/01/03 10:47:52;;;;;;;10.93;9.80;;;6.80;63.20;;;;;;4892488;29;20551;-76
2021/01/03 10:50:22;;;;;;;10.00;9.00;;;6.80;63.70;;;;;;4897640;29;20459;-76
2021/01/03 10:52:48;;;;;;;13.97;11.17;;;6.70;64.00;;;;;;4897991;29;20960;-76
2021/01/03 10:55:23;;;;;;;13.63;10.87;;;6.70;64.10;;;;;;4897610;29;20454;-76
2021/01/03 10:57:54;;;;;;;12.57;10.67;;;6.60;64.20;;;;;;4897742;29;20467;-76
2021/01/03 11:00:21;;;;;;;11.00;9.07;;;6.70;64.30;;;;;;4897615;29;20544;-76
2021/01/03 11:02:48;;;;;;;10.77;9.67;;;6.60;64.20;;;;;;4896506;29;20456;-76
2021/01/03 11:05:16;;;;;;;12.03;10.80;;;6.60;64.40;;;;;;4895289;29;20519;-74
2021/01/03 11:07:42;;;;;;;11.60;10.33;;;6.60;64.50;;;;;;4897138;29;20464;-74
2021/01/03 11:10:10;;;;;;;12.07;10.80;;;6.60;64.70;;;;;;4896716;29;20460;-75
2021/01/03 11:12:38;;;;;;;12.70;9.77;;;6.60;64.50;;;;;;4897556;29;20464;-75
2021/01/03 11:15:09;;;;;;;13.10;10.80;;;6.60;64.10;;;;;;4897233;29;20461;-76
2021/01/03 11:17:37;;;;;;;13.27;10.63;;;6.60;64.10;;;;;;4897293;29;20958;-74
2021/01/03 11:20:05;;;;;;;12.03;10.80;;;6.60;64.40;;;;;;4897323;29;20482;-74
2021/01/03 11:22:31;;;;;;;10.60;9.50;;;6.60;64.60;;;;;;4897491;29;20876;-77
2021/01/03 11:24:58;;;;;;;10.53;9.37;;;6.60;64.30;;;;;;4896098;29;20472;-76
2021/01/03 11:27:24;;;;;;;12.53;10.70;;;6.50;64.10;;;;;;4897261;29;20539;-77
2021/01/03 11:29:52;;;;;;;14.90;11.20;;;6.50;64.00;;;;;;4896608;29;20538;-77
2021/01/03 11:32:22;;;;;;;10.70;9.60;;;6.40;64.30;;;;;;4895895;29;20457;-77
2021/01/03 11:34:49;;;;;;;12.10;10.90;;;6.30;64.30;;;;;;4896472;29;20875;-77
2021/01/03 11:37:20;;;;;;;12.30;10.57;;;6.30;64.30;;;;;;4897342;29;20466;-77
2021/01/03 11:39:47;;;;;;;14.13;11.33;;;6.30;64.70;;;;;;4896979;29;20492;-75
2021/01/03 11:42:16;;;;;;;11.17;10.00;;;6.30;64.80;;;;;;4896439;29;20991;-77
2021/01/03 11:44:44;;;;;;;14.57;12.03;;;6.40;65.00;;;;;;4898582;29;20949;-76
2021/01/03 11:47:14;;;;;;;13.50;10.90;;;6.50;65.10;;;;;;4900029;29;20479;-76
2021/01/03 11:49:42;;;;;;;14.93;10.53;;;6.60;65.10;;;;;;4900647;29;20467;-75
2021/01/03 11:52:08;;;;;;;12.87;10.87;;;6.60;65.00;;;;;;4900605;29;20906;-75
2021/01/03 11:54:38;;;;;;;15.27;12.80;;;6.60;64.80;;;;;;4900833;29;20887;-76
2021/01/03 11:57:06;;;;;;;16.77;11.67;;;6.60;64.90;;;;;;4899202;29;20779;-75
2021/01/03 11:59:32;;;;;;;13.37;11.97;;;6.70;64.70;;;;;;4900089;29;21004;-75
2021/01/03 12:02:00;;;;;;;15.60;12.40;;;6.70;64.10;;;;;;4900487;29;20501;-75
2021/01/03 12:04:27;;;;;;;15.00;11.77;;;6.70;64.00;;;;;;4900077;29;20463;-75
2021/01/03 12:06:58;;;;;;;14.93;11.80;;;6.80;64.30;;;;;;4900486;29;20481;-74
2021/01/03 12:09:28;;;;;;;17.70;11.53;;;6.80;64.20;;;;;;4900279;29;20462;-74
2021/01/03 12:11:56;;;;;;;13.70;12.30;;;6.80;64.00;;;;;;4900348;29;20467;-74
2021/01/03 12:14:23;;;;;;;13.27;11.40;;;6.70;64.00;;;;;;4900232;29;20966;-75
2021/01/03 12:16:54;;;;;;;12.27;10.97;;;6.70;64.20;;;;;;4900349;29;20859;-75
2021/01/03 12:19:21;;;;;;;12.83;11.53;;;6.70;64.20;;;;;;4900721;29;20555;-75
2021/01/03 12:21:48;;;;;;;14.50;11.83;;;6.70;64.10;;;;;;4899568;29;20501;-75
2021/01/03 12:24:17;;;;;;;15.53;11.93;;;6.70;63.60;;;;;;4898974;29;20460;-75
2021/01/03 12:26:44;;;;;;;14.80;12.80;;;6.60;63.60;;;;;;4900178;29;20453;-75
2021/01/03 12:29:15;;;;;;;15.87;13.23;;;6.60;64.00;;;;;;4900169;29;20461;-75
2021/01/03 12:31:44;;;;;;;17.90;13.43;;;6.60;64.30;;;;;;4900193;29;20471;-75
2021/01/03 12:34:14;;;;;;;15.93;12.57;;;6.60;64.30;;;;;;4899764;29;20913;-75
2021/01/03 12:36:42;;;;;;;14.70;11.60;;;6.60;64.60;;;;;;4900112;29;20455;-76
2021/01/03 12:39:11;;;;;;;14.80;13.17;;;6.60;64.70;;;;;;4891501;29;20454;-76
2021/01/03 12:41:40;;;;;;;15.93;12.53;;;6.60;64.80;;;;;;4910245;29;20509;-76
2021/01/03 12:44:08;;;;;;;14.10;12.23;;;6.60;64.80;;;;;;4901433;29;20968;-76
2021/01/03 12:46:37;;;;;;;17.83;14.03;;;6.60;64.70;;;;;;4904315;29;20490;-75
2021/01/03 12:49:05;;;;;;;14.57;12.27;;;6.70;64.60;;;;;;4896378;29;20458;-76
2021/01/03 12:51:31;;;;;;;14.90;11.90;;;6.70;64.50;;;;;;4900630;29;20539;-75
2021/01/03 12:53:58;;;;;;;14.43;11.80;;;6.70;64.50;;;;;;4904003;29;20448;-76
2021/01/03 12:56:26;;;;;;;17.47;14.03;;;6.70;64.50;;;;;;4898621;29;20463;-76
2021/01/03 12:58:54;;;;;;;15.63;12.90;;;6.60;64.60;;;;;;4903504;29;20455;-76
2021/01/03 13:01:23;;;;;;;17.90;14.47;;;6.60;64.60;;;;;;4899155;29;20499;-76
2021/01/03 13:03:50;;;;;;;16.10;13.20;;;6.60;64.60;;;;;;4907803;29;20828;-77